createdAt,value
2022-11-29T00:00:07.519Z,100372.00
2022-11-29T00:00:49.722Z,100374.28
2022-11-29T00:01:25.589Z,100367.03
2022-11-29T00:01:57.755Z,100367.81
2022-11-29T00:02:29.812Z,100368.03
2022-11-29T00:03:02.096Z,100369.56
2022-11-29T00:03:34.583Z,100370.59
2022-11-29T00:04:06.968Z,100367.47
2022-11-29T00:04:38.896Z,100359.34
2022-11-29T00:05:10.887Z,100364.53
2022-11-29T00:05:42.754Z,100368.34
2022-11-29T00:06:17.520Z,100362.66
2022-11-29T00:06:49.651Z,100361.41
2022-11-29T00:07:21.561Z,100358.94
2022-11-29T00:07:53.563Z,100363.53
2022-11-29T00:08:25.490Z,100362.63
2022-11-29T00:09:03.570Z,100365.78
2022-11-29T00:09:35.403Z,100356.31
2022-11-29T00:10:08.110Z,100354.22
2022-11-29T00:10:40.009Z,100360.19
2022-11-29T00:11:36.335Z,100356.75
2022-11-29T00:12:12.201Z,100355.78
2022-11-29T00:12:46.341Z,100350.13
2022-11-29T00:13:18.179Z,100352.16
2022-11-29T00:13:50.148Z,100353.88
2022-11-29T00:14:22.970Z,100350.88
2022-11-29T00:14:54.914Z,100346.44
2022-11-29T00:15:26.740Z,100346.94
2022-11-29T00:16:05.717Z,100342.75
2022-11-29T00:16:37.606Z,100339.03
2022-11-29T00:17:09.863Z,100340.75
2022-11-29T00:17:41.811Z,100345.19
2022-11-29T00:18:13.648Z,100341.09
2022-11-29T00:18:45.506Z,100341.25
2022-11-29T00:19:17.368Z,100341.09
2022-11-29T00:19:49.196Z,100332.69
2022-11-29T00:20:21.032Z,100334.31
2022-11-29T00:20:52.853Z,100343.56
2022-11-29T00:21:24.708Z,100336.50
2022-11-29T00:21:56.713Z,100338.13
2022-11-29T00:22:29.376Z,100335.31
2022-11-29T00:23:01.721Z,100332.88
2022-11-29T00:23:34.097Z,100339.75
2022-11-29T00:24:06.349Z,100338.37
2022-11-29T00:24:38.190Z,100337.41
2022-11-29T00:25:10.048Z,100337.19
2022-11-29T00:25:41.903Z,100333.88
2022-11-29T00:26:13.737Z,100337.94
2022-11-29T00:26:45.818Z,100334.41
2022-11-29T00:27:18.419Z,100342.13
2022-11-29T00:27:51.557Z,100337.66
2022-11-29T00:28:23.465Z,100339.22
2022-11-29T00:28:55.316Z,100341.59
2022-11-29T00:29:27.758Z,100337.31
2022-11-29T00:29:59.793Z,100337.31
2022-11-29T00:30:31.775Z,100339.75
2022-11-29T00:31:15.570Z,100338.66
2022-11-29T00:31:47.519Z,100339.47
2022-11-29T00:32:19.384Z,100330.25
2022-11-29T00:32:51.526Z,100338.72
2022-11-29T00:33:23.401Z,100334.69
2022-11-29T00:33:57.071Z,100338.19
2022-11-29T00:34:28.971Z,100328.44
2022-11-29T00:35:05.227Z,100332.78
2022-11-29T00:35:40.071Z,100330.47
2022-11-29T00:36:12.771Z,100328.22
2022-11-29T00:36:44.665Z,100332.28
2022-11-29T00:37:16.495Z,100329.56
2022-11-29T00:37:48.391Z,100332.56
2022-11-29T00:38:20.552Z,100327.28
2022-11-29T00:38:52.459Z,100323.31
2022-11-29T00:39:24.448Z,100321.13
2022-11-29T00:39:56.330Z,100327.38
2022-11-29T00:40:28.183Z,100323.91
2022-11-29T00:41:00.033Z,100321.56
2022-11-29T00:41:32.606Z,100325.63
2022-11-29T00:42:05.372Z,100321.97
2022-11-29T00:42:37.256Z,100326.09
2022-11-29T00:43:09.086Z,100327.44
2022-11-29T00:43:41.681Z,100329.31
2022-11-29T00:44:19.644Z,100321.16
2022-11-29T00:44:52.159Z,100321.97
2022-11-29T00:45:24.324Z,100322.25
2022-11-29T00:45:56.357Z,100318.50
2022-11-29T00:46:28.274Z,100323.66
2022-11-29T00:47:00.250Z,100320.97
2022-11-29T00:47:32.161Z,100324.84
2022-11-29T00:48:04.246Z,100320.78
2022-11-29T00:48:36.398Z,100317.12
2022-11-29T00:49:08.615Z,100319.00
2022-11-29T00:49:40.486Z,100317.12
2022-11-29T00:50:12.493Z,100323.66
2022-11-29T00:50:44.326Z,100316.66
2022-11-29T00:51:16.191Z,100320.19
2022-11-29T00:51:48.059Z,100319.47
2022-11-29T00:52:19.920Z,100314.72
2022-11-29T00:52:51.798Z,100313.59
2022-11-29T00:53:23.757Z,100315.19
2022-11-29T00:53:55.658Z,100312.00
2022-11-29T00:54:27.958Z,100314.47
2022-11-29T00:54:59.890Z,100313.78
2022-11-29T00:55:31.761Z,100316.22
2022-11-29T00:56:04.602Z,100313.25
2022-11-29T00:56:36.583Z,100318.00
2022-11-29T00:57:08.437Z,100313.69
2022-11-29T00:57:40.385Z,100317.75
2022-11-29T00:58:12.216Z,100312.91
2022-11-29T00:58:44.170Z,100311.69
2022-11-29T00:59:16.034Z,100314.78
2022-11-29T00:59:48.165Z,100310.19
2022-11-29T01:00:20.378Z,100311.78
2022-11-29T01:00:53.570Z,100313.16
2022-11-29T01:01:25.710Z,100310.97
2022-11-29T01:01:57.721Z,100312.56
2022-11-29T01:02:29.637Z,100305.81
2022-11-29T01:03:02.104Z,100306.19
2022-11-29T01:03:34.015Z,100309.03
2022-11-29T01:04:05.951Z,100305.94
2022-11-29T01:04:37.921Z,100309.03
2022-11-29T01:05:10.152Z,100303.84
2022-11-29T01:05:42.983Z,100307.91
2022-11-29T01:06:17.335Z,100315.78
2022-11-29T01:06:53.326Z,100310.38
2022-11-29T01:07:25.328Z,100308.72
2022-11-29T01:07:57.325Z,100311.81
2022-11-29T01:08:29.267Z,100307.84
2022-11-29T01:09:01.217Z,100299.03
2022-11-29T01:09:33.064Z,100305.56
2022-11-29T01:10:05.559Z,100307.16
2022-11-29T01:10:38.112Z,100312.19
2022-11-29T01:11:14.357Z,100303.53
2022-11-29T01:11:46.301Z,100305.03
2022-11-29T01:12:18.135Z,100307.31
2022-11-29T01:12:50.089Z,100305.72
2022-11-29T01:13:21.904Z,100301.78
2022-11-29T01:13:57.308Z,100301.63
2022-11-29T01:14:29.140Z,100304.87
2022-11-29T01:15:00.998Z,100299.31
2022-11-29T01:15:33.068Z,100302.41
2022-11-29T01:16:06.458Z,100295.50
2022-11-29T01:16:38.332Z,100297.13
2022-11-29T01:17:10.519Z,100296.22
2022-11-29T01:17:42.769Z,100297.03
2022-11-29T01:18:15.527Z,100292.00
2022-11-29T01:18:47.721Z,100292.84
2022-11-29T01:19:19.607Z,100296.38
2022-11-29T01:19:51.467Z,100294.19
2022-11-29T01:20:23.336Z,100294.19
2022-11-29T01:21:01.714Z,100297.44
2022-11-29T01:21:34.093Z,100297.44
2022-11-29T01:22:05.968Z,100294.19
2022-11-29T01:22:39.481Z,100296.50
2022-11-29T01:23:11.426Z,100294.97
2022-11-29T01:23:44.496Z,100294.03
2022-11-29T01:24:16.372Z,100298.50
2022-11-29T01:24:48.444Z,100294.16
2022-11-29T01:25:20.815Z,100293.06
2022-11-29T01:26:01.598Z,100293.06
2022-11-29T01:26:33.859Z,100300.69
2022-11-29T01:27:05.765Z,100296.75
2022-11-29T01:27:37.839Z,100295.53
2022-11-29T01:28:09.662Z,100298.13
2022-11-29T01:28:42.460Z,100298.81
2022-11-29T01:29:14.395Z,100303.97
2022-11-29T01:29:46.231Z,100295.97
2022-11-29T01:30:18.120Z,100301.47
2022-11-29T01:30:49.943Z,100306.62
2022-11-29T01:31:24.440Z,100299.97
2022-11-29T01:31:56.588Z,100289.50
2022-11-29T01:32:28.517Z,100298.47
2022-11-29T01:33:00.389Z,100296.16
2022-11-29T01:33:32.390Z,100297.69
2022-11-29T01:34:06.745Z,100291.19
2022-11-29T01:34:39.262Z,100297.72
2022-11-29T01:35:11.267Z,100302.59
2022-11-29T01:35:54.827Z,100300.81
2022-11-29T01:36:27.983Z,100298.13
2022-11-29T01:37:00.412Z,100290.41
2022-11-29T01:37:32.507Z,100295.84
2022-11-29T01:38:04.401Z,100291.09
2022-11-29T01:38:37.113Z,100294.87
2022-11-29T01:39:09.023Z,100294.59
2022-11-29T01:39:40.840Z,100293.66
2022-11-29T01:40:13.907Z,100290.41
2022-11-29T01:40:56.516Z,100300.97
2022-11-29T01:41:31.866Z,100289.31
2022-11-29T01:42:04.270Z,100300.59
2022-11-29T01:42:36.124Z,100293.78
2022-11-29T01:43:17.289Z,100289.44
2022-11-29T01:44:00.338Z,100297.41
2022-11-29T01:44:32.103Z,100297.81
2022-11-29T01:45:25.384Z,100298.72
2022-11-29T01:45:58.176Z,100298.47
2022-11-29T01:46:38.462Z,100299.00
2022-11-29T01:47:11.899Z,100297.13
2022-11-29T01:47:46.296Z,100299.59
2022-11-29T01:48:19.942Z,100295.63
2022-11-29T01:48:56.910Z,100299.78
2022-11-29T01:49:34.018Z,100291.81
2022-11-29T01:50:08.141Z,100295.31
2022-11-29T01:50:42.544Z,100299.91
2022-11-29T01:51:14.931Z,100299.62
2022-11-29T01:51:51.465Z,100297.59
2022-11-29T01:52:28.460Z,100292.84
2022-11-29T01:53:00.847Z,100293.53
2022-11-29T01:53:33.173Z,100298.84
2022-11-29T01:54:05.796Z,100299.56
2022-11-29T01:54:41.721Z,100299.03
2022-11-29T01:55:14.165Z,100302.16
2022-11-29T01:55:53.597Z,100293.25
2022-11-29T01:56:26.388Z,100296.16
2022-11-29T01:56:59.416Z,100295.31
2022-11-29T01:57:33.972Z,100292.22
2022-11-29T01:58:07.720Z,100294.22
2022-11-29T01:58:39.694Z,100297.19
2022-11-29T01:59:19.265Z,100301.91
2022-11-29T01:59:56.853Z,100308.13
2022-11-29T02:00:30.037Z,100300.56
2022-11-29T02:01:02.572Z,100299.25
2022-11-29T02:01:35.891Z,100300.31
2022-11-29T02:02:20.520Z,100302.59
2022-11-29T02:02:58.460Z,100299.25
2022-11-29T02:03:30.715Z,100296.53
2022-11-29T02:04:03.325Z,100304.56
2022-11-29T02:04:36.438Z,100301.84
2022-11-29T02:05:09.215Z,100301.66
2022-11-29T02:05:45.020Z,100307.66
2022-11-29T02:06:16.895Z,100306.59
2022-11-29T02:06:48.771Z,100298.44
2022-11-29T02:07:20.684Z,100306.31
2022-11-29T02:07:55.896Z,100300.56
2022-11-29T02:08:39.214Z,100303.72
2022-11-29T02:09:23.084Z,100305.63
2022-11-29T02:09:55.054Z,100300.59
2022-11-29T02:11:04.485Z,100297.16
2022-11-29T02:11:57.580Z,100295.41
2022-11-29T02:12:29.375Z,100290.09
2022-11-29T02:13:11.534Z,100294.94
2022-11-29T02:14:15.512Z,100294.63
2022-11-29T02:14:56.935Z,100291.37
2022-11-29T02:15:57.451Z,100295.06
2022-11-29T02:16:52.226Z,100294.16
2022-11-29T02:18:02.487Z,100292.78
2022-11-29T02:19:04.003Z,100290.59
2022-11-29T02:20:06.414Z,100298.47
2022-11-29T02:20:47.557Z,100290.59
2022-11-29T02:21:25.595Z,100296.62
2022-11-29T02:22:09.235Z,100289.56
2022-11-29T02:22:57.205Z,100291.75
2022-11-29T02:24:00.130Z,100287.63
2022-11-29T02:24:44.094Z,100295.84
2022-11-29T02:26:00.634Z,100299.31
2022-11-29T02:27:10.656Z,100293.75
2022-11-29T02:27:42.448Z,100296.16
2022-11-29T02:28:47.929Z,100304.00
2022-11-29T02:29:44.111Z,100306.03
2022-11-29T02:30:39.382Z,100298.97
2022-11-29T02:31:14.126Z,100300.84
2022-11-29T02:32:04.292Z,100307.38
2022-11-29T02:32:51.118Z,100312.94
2022-11-29T02:33:52.953Z,100309.78
2022-11-29T02:34:51.317Z,100314.91
2022-11-29T02:35:41.766Z,100313.84
2022-11-29T02:36:58.442Z,100311.25
2022-11-29T02:37:55.424Z,100310.09
2022-11-29T02:38:51.991Z,100315.97
2022-11-29T02:39:35.587Z,100314.19
2022-11-29T02:40:23.033Z,100314.41
2022-11-29T02:41:17.984Z,100316.59
2022-11-29T02:42:01.689Z,100317.09
2022-11-29T02:42:56.412Z,100313.59
2022-11-29T02:43:43.867Z,100303.28
2022-11-29T02:44:44.921Z,100313.00
2022-11-29T02:45:22.566Z,100309.84
2022-11-29T02:46:12.878Z,100304.97
2022-11-29T02:46:47.703Z,100311.91
2022-11-29T02:47:46.275Z,100311.47
2022-11-29T02:49:03.413Z,100308.06
2022-11-29T02:49:52.793Z,100311.75
2022-11-29T02:50:41.467Z,100312.22
2022-11-29T02:51:24.690Z,100318.75
2022-11-29T02:52:05.037Z,100316.00
2022-11-29T02:52:46.526Z,100320.62
2022-11-29T02:53:47.720Z,100320.94
2022-11-29T02:54:53.077Z,100312.22
2022-11-29T02:55:47.613Z,100318.47
2022-11-29T02:56:25.274Z,100317.91
2022-11-29T02:57:09.173Z,100319.34
2022-11-29T02:57:54.363Z,100322.47
2022-11-29T02:58:51.348Z,100324.09
2022-11-29T02:59:46.256Z,100315.25
2022-11-29T03:00:23.373Z,100320.62
2022-11-29T03:01:07.062Z,100317.91
2022-11-29T03:02:07.084Z,100321.41
2022-11-29T03:03:08.767Z,100312.22
2022-11-29T03:03:53.130Z,100318.13
2022-11-29T03:04:34.669Z,100315.25
2022-11-29T03:05:25.073Z,100323.66
2022-11-29T03:06:22.946Z,100320.97
2022-11-29T03:07:22.513Z,100317.63
2022-11-29T03:08:31.794Z,100319.66
2022-11-29T03:09:33.155Z,100321.41
2022-11-29T03:10:20.873Z,100325.31
2022-11-29T03:10:57.540Z,100320.84
2022-11-29T03:11:45.165Z,100326.25
2022-11-29T03:12:31.797Z,100328.09
2022-11-29T03:13:10.499Z,100330.00
2022-11-29T03:14:10.000Z,100326.78
2022-11-29T03:14:59.779Z,100331.94
2022-11-29T03:15:38.789Z,100332.50
2022-11-29T03:16:22.728Z,100338.41
2022-11-29T03:17:07.417Z,100336.50
2022-11-29T03:18:00.965Z,100330.88
2022-11-29T03:18:56.076Z,100329.44
2022-11-29T03:19:55.246Z,100332.53
2022-11-29T03:20:56.432Z,100331.72
2022-11-29T03:21:50.160Z,100328.87
2022-11-29T03:22:40.349Z,100331.47
2022-11-29T03:23:33.679Z,100332.56
2022-11-29T03:24:14.760Z,100329.06
2022-11-29T03:24:55.612Z,100325.13
2022-11-29T03:25:40.056Z,100327.34
2022-11-29T03:26:15.524Z,100328.84
2022-11-29T03:27:01.551Z,100322.44
2022-11-29T03:27:43.874Z,100325.25
2022-11-29T03:28:21.031Z,100324.16
2022-11-29T03:29:09.602Z,100332.59
2022-11-29T03:29:58.631Z,100329.22
2022-11-29T03:30:34.526Z,100327.44
2022-11-29T03:31:18.377Z,100336.38
2022-11-29T03:32:02.541Z,100337.62
2022-11-29T03:32:45.691Z,100330.66
2022-11-29T03:33:43.278Z,100339.03
2022-11-29T03:34:26.953Z,100333.25
2022-11-29T03:35:01.411Z,100336.06
2022-11-29T03:35:39.562Z,100335.63
2022-11-29T03:36:28.944Z,100339.00
2022-11-29T03:37:12.568Z,100338.03
2022-11-29T03:38:19.232Z,100339.97
2022-11-29T03:38:55.062Z,100339.28
2022-11-29T03:39:45.079Z,100339.34
2022-11-29T03:40:25.569Z,100337.56
2022-11-29T03:41:05.011Z,100338.19
2022-11-29T03:41:57.209Z,100345.00
2022-11-29T03:42:36.227Z,100345.31
2022-11-29T03:43:17.070Z,100336.63
2022-11-29T03:43:57.772Z,100338.44
2022-11-29T03:44:39.840Z,100336.53
2022-11-29T03:45:24.953Z,100334.84
2022-11-29T03:46:03.485Z,100342.72
2022-11-29T03:46:44.000Z,100340.00
2022-11-29T03:47:23.743Z,100336.19
2022-11-29T03:48:07.384Z,100346.41
2022-11-29T03:48:59.497Z,100340.28
2022-11-29T03:49:37.781Z,100340.94
2022-11-29T03:50:25.995Z,100342.84
2022-11-29T03:51:12.503Z,100338.50
2022-11-29T03:51:56.385Z,100335.50
2022-11-29T03:52:38.552Z,100339.56
2022-11-29T03:53:36.011Z,100340.97
2022-11-29T03:54:16.488Z,100339.59
2022-11-29T03:55:14.482Z,100334.53
2022-11-29T03:55:48.975Z,100337.53
2022-11-29T03:56:32.123Z,100339.56
2022-11-29T03:57:04.316Z,100337.41
2022-11-29T03:58:17.540Z,100342.50
2022-11-29T03:59:10.586Z,100343.62
2022-11-29T03:59:51.030Z,100345.28
2022-11-29T04:00:23.763Z,100346.00
2022-11-29T04:01:21.546Z,100345.63
2022-11-29T04:02:08.706Z,100347.53
2022-11-29T04:03:01.073Z,100349.66
2022-11-29T04:03:50.926Z,100343.94
2022-11-29T04:04:40.949Z,100343.34
2022-11-29T04:05:21.985Z,100351.00
2022-11-29T04:06:16.302Z,100349.09
2022-11-29T04:07:30.061Z,100349.13
2022-11-29T04:08:39.512Z,100345.53
2022-11-29T04:09:40.263Z,100345.28
2022-11-29T04:10:29.991Z,100351.38
2022-11-29T04:11:31.397Z,100343.03
2022-11-29T04:12:22.261Z,100344.00
2022-11-29T04:13:27.628Z,100353.38
2022-11-29T04:14:27.093Z,100345.63
2022-11-29T04:15:16.622Z,100349.69
2022-11-29T04:16:07.610Z,100348.87
2022-11-29T04:17:03.526Z,100358.06
2022-11-29T04:17:45.107Z,100352.06
2022-11-29T04:18:29.080Z,100351.56
2022-11-29T04:19:31.988Z,100353.19
2022-11-29T04:20:21.862Z,100350.59
2022-11-29T04:21:08.539Z,100350.75
2022-11-29T04:22:19.390Z,100357.22
2022-11-29T04:23:25.650Z,100353.72
2022-11-29T04:24:20.815Z,100359.91
2022-11-29T04:25:07.713Z,100359.03
2022-11-29T04:25:54.775Z,100358.81
2022-11-29T04:26:40.155Z,100351.91
2022-11-29T04:27:33.067Z,100358.97
2022-11-29T04:28:47.066Z,100356.38
2022-11-29T04:29:43.784Z,100353.97
2022-11-29T04:30:23.705Z,100355.41
2022-11-29T04:31:13.614Z,100355.94
2022-11-29T04:32:10.364Z,100353.91
2022-11-29T04:33:03.189Z,100359.19
2022-11-29T04:34:00.374Z,100352.09
2022-11-29T04:34:47.501Z,100353.56
2022-11-29T04:35:43.951Z,100349.00
2022-11-29T04:36:38.681Z,100352.94
2022-11-29T04:37:37.891Z,100359.69
2022-11-29T04:38:47.901Z,100358.63
2022-11-29T04:39:48.924Z,100357.66
2022-11-29T04:40:49.972Z,100362.72
2022-11-29T04:41:36.610Z,100366.53
2022-11-29T04:42:23.584Z,100364.06
2022-11-29T04:43:27.614Z,100361.88
2022-11-29T04:44:36.922Z,100362.72
2022-11-29T04:45:36.457Z,100366.16
2022-11-29T04:46:39.257Z,100362.50
2022-11-29T04:47:19.723Z,100364.28
2022-11-29T04:48:13.924Z,100359.25
2022-11-29T04:48:51.675Z,100366.69
2022-11-29T04:49:52.741Z,100358.72
2022-11-29T04:50:40.082Z,100362.09
2022-11-29T04:51:30.053Z,100363.19
2022-11-29T04:52:29.602Z,100368.63
2022-11-29T04:53:22.361Z,100366.47
2022-11-29T04:54:15.999Z,100366.44
2022-11-29T04:55:06.539Z,100371.84
2022-11-29T04:56:04.307Z,100372.53
2022-11-29T04:57:08.253Z,100371.31
2022-11-29T04:57:45.723Z,100368.47
2022-11-29T04:58:32.783Z,100371.03
2022-11-29T04:59:24.812Z,100375.50
2022-11-29T05:00:08.028Z,100372.53
2022-11-29T05:00:51.936Z,100374.41
2022-11-29T05:02:11.552Z,100373.91
2022-11-29T05:02:59.690Z,100371.44
2022-11-29T05:03:39.087Z,100366.81
2022-11-29T05:04:16.389Z,100366.25
2022-11-29T05:04:53.763Z,100370.31
2022-11-29T05:05:43.201Z,100367.34
2022-11-29T05:06:35.159Z,100372.72
2022-11-29T05:07:18.783Z,100375.06
2022-11-29T05:07:53.287Z,100374.50
2022-11-29T05:08:56.709Z,100365.91
2022-11-29T05:09:55.338Z,100375.38
2022-11-29T05:11:01.208Z,100370.00
2022-11-29T05:12:14.895Z,100380.53
2022-11-29T05:13:20.578Z,100379.75
2022-11-29T05:14:41.772Z,100376.94
2022-11-29T05:15:41.383Z,100380.16
2022-11-29T05:16:46.514Z,100383.47
2022-11-29T05:17:31.582Z,100390.19
2022-11-29T05:18:26.393Z,100383.37
2022-11-29T05:19:22.946Z,100382.72
2022-11-29T05:20:26.265Z,100388.44
2022-11-29T05:21:16.827Z,100381.03
2022-11-29T05:22:19.558Z,100374.81
2022-11-29T05:23:29.118Z,100383.34
2022-11-29T05:24:31.590Z,100386.06
2022-11-29T05:25:32.401Z,100384.97
2022-11-29T05:26:17.760Z,100382.81
2022-11-29T05:27:28.352Z,100390.94
2022-11-29T05:28:10.335Z,100388.97
2022-11-29T05:29:03.823Z,100388.72
2022-11-29T05:29:46.226Z,100384.41
2022-11-29T05:30:21.116Z,100383.34
2022-11-29T05:31:23.795Z,100387.16
2022-11-29T05:32:00.207Z,100389.28
2022-11-29T05:33:01.086Z,100380.84
2022-11-29T05:33:45.200Z,100385.75
2022-11-29T05:34:19.910Z,100375.22
2022-11-29T05:35:34.716Z,100385.28
2022-11-29T05:36:25.184Z,100382.44
2022-11-29T05:37:15.145Z,100380.41
2022-11-29T05:37:52.069Z,100383.91
2022-11-29T05:38:23.855Z,100391.25
2022-11-29T05:39:33.196Z,100390.72
2022-11-29T05:40:36.634Z,100387.31
2022-11-29T05:41:50.064Z,100387.84
2022-11-29T05:42:34.307Z,100387.59
2022-11-29T05:43:12.252Z,100383.63
2022-11-29T05:44:21.259Z,100388.12
2022-11-29T05:45:03.069Z,100383.78
2022-11-29T05:45:43.530Z,100385.56
2022-11-29T05:46:39.976Z,100391.41
2022-11-29T05:47:24.676Z,100386.94
2022-11-29T05:48:37.755Z,100387.19
2022-11-29T05:49:20.984Z,100383.37
2022-11-29T05:50:05.334Z,100391.75
2022-11-29T05:50:52.721Z,100388.12
2022-11-29T05:51:58.396Z,100388.25
2022-11-29T05:52:48.781Z,100391.66
2022-11-29T05:53:43.491Z,100387.19
2022-11-29T05:54:36.990Z,100392.84
2022-11-29T05:55:15.187Z,100396.78
2022-11-29T05:56:05.777Z,100393.66
2022-11-29T05:57:02.112Z,100395.41
2022-11-29T05:57:55.404Z,100391.22
2022-11-29T05:58:52.528Z,100389.34
2022-11-29T05:59:29.053Z,100397.16
2022-11-29T06:00:03.155Z,100392.03
2022-11-29T06:01:00.453Z,100392.84
2022-11-29T06:01:59.484Z,100390.53
2022-11-29T06:03:00.934Z,100392.44
2022-11-29T06:03:53.524Z,100396.63
2022-11-29T06:04:40.322Z,100400.19
2022-11-29T06:05:30.674Z,100396.81
2022-11-29T06:06:19.653Z,100398.16
2022-11-29T06:07:38.800Z,100397.63
2022-11-29T06:08:25.769Z,100400.03
2022-11-29T06:09:21.946Z,100405.19
2022-11-29T06:10:11.703Z,100398.31
2022-11-29T06:11:06.358Z,100400.03
2022-11-29T06:11:52.987Z,100405.09
2022-11-29T06:12:26.881Z,100396.94
2022-11-29T06:13:04.283Z,100398.84
2022-11-29T06:13:50.988Z,100406.81
2022-11-29T06:14:26.000Z,100406.28
2022-11-29T06:15:19.948Z,100400.47
2022-11-29T06:16:07.001Z,100405.50
2022-11-29T06:16:57.307Z,100409.94
2022-11-29T06:17:48.893Z,100414.41
2022-11-29T06:18:33.846Z,100406.69
2022-11-29T06:19:11.948Z,100408.72
2022-11-29T06:20:22.154Z,100411.97
2022-11-29T06:21:13.194Z,100410.25
2022-11-29T06:22:07.154Z,100415.66
2022-11-29T06:22:42.123Z,100409.97
2022-11-29T06:23:29.183Z,100409.28
2022-11-29T06:24:36.357Z,100406.97
2022-11-29T06:25:15.544Z,100409.50
2022-11-29T06:26:07.271Z,100409.91
2022-11-29T06:26:58.147Z,100412.12
2022-11-29T06:27:49.763Z,100401.81
2022-11-29T06:28:28.555Z,100411.56
2022-11-29T06:29:03.802Z,100408.88
2022-11-29T06:30:11.710Z,100407.22
2022-11-29T06:30:49.301Z,100413.22
2022-11-29T06:31:27.136Z,100410.75
2022-11-29T06:32:30.507Z,100414.56
2022-11-29T06:33:18.905Z,100410.75
2022-11-29T06:34:15.044Z,100415.09
2022-11-29T06:34:54.904Z,100404.81
2022-11-29T06:35:46.410Z,100409.41
2022-11-29T06:36:42.903Z,100406.69
2022-11-29T06:37:31.505Z,100413.91
2022-11-29T06:38:13.977Z,100407.66
2022-11-29T06:38:46.049Z,100404.00
2022-11-29T06:39:18.560Z,100407.91
2022-11-29T06:39:50.720Z,100412.25
2022-11-29T06:40:23.033Z,100416.72
2022-11-29T06:41:01.540Z,100415.50
2022-11-29T06:41:34.410Z,100414.31
2022-11-29T06:42:06.289Z,100413.47
2022-11-29T06:42:38.401Z,100413.53
2022-11-29T06:43:10.495Z,100420.59
2022-11-29T06:43:42.616Z,100421.56
2022-11-29T06:44:14.937Z,100424.81
2022-11-29T06:44:47.804Z,100418.28
2022-11-29T06:45:21.830Z,100422.78
2022-11-29T06:45:59.519Z,100417.34
2022-11-29T06:46:48.162Z,100420.69
2022-11-29T06:47:42.658Z,100419.09
2022-11-29T06:48:25.680Z,100425.34
2022-11-29T06:49:12.132Z,100429.12
2022-11-29T06:49:49.728Z,100420.88
2022-11-29T06:50:33.419Z,100429.84
2022-11-29T06:51:17.410Z,100418.78
2022-11-29T06:51:58.091Z,100425.66
2022-11-29T06:52:54.678Z,100416.81
2022-11-29T06:53:38.719Z,100420.63
2022-11-29T06:54:19.066Z,100423.63
2022-11-29T06:55:22.653Z,100418.59
2022-11-29T06:56:32.945Z,100418.84
2022-11-29T06:57:10.553Z,100421.22
2022-11-29T06:57:48.352Z,100424.91
2022-11-29T06:58:51.360Z,100424.16
2022-11-29T07:00:16.355Z,100419.16
2022-11-29T07:01:03.568Z,100421.06
2022-11-29T07:01:58.422Z,100431.41
2022-11-29T07:03:07.739Z,100426.03
2022-11-29T07:03:42.455Z,100428.38
2022-11-29T07:04:46.308Z,100424.94
2022-11-29T07:05:27.701Z,100426.03
2022-11-29T07:06:08.224Z,100427.19
2022-11-29T07:06:40.604Z,100432.63
2022-11-29T07:07:19.635Z,100431.00
2022-11-29T07:07:57.707Z,100428.62
2022-11-29T07:08:29.811Z,100434.63
2022-11-29T07:09:11.927Z,100430.28
2022-11-29T07:09:46.063Z,100435.44
2022-11-29T07:10:19.407Z,100431.53
2022-11-29T07:10:54.121Z,100437.34
2022-11-29T07:11:26.658Z,100434.88
2022-11-29T07:11:59.061Z,100430.53
2022-11-29T07:12:31.254Z,100434.94
2022-11-29T07:13:03.927Z,100438.06
2022-11-29T07:13:36.008Z,100430.31
2022-11-29T07:14:09.854Z,100431.97
2022-11-29T07:14:42.302Z,100433.78
2022-11-29T07:15:20.701Z,100435.78
2022-11-29T07:16:11.431Z,100440.63
2022-11-29T07:16:59.748Z,100437.69
2022-11-29T07:17:43.871Z,100440.72
2022-11-29T07:18:39.177Z,100441.38
2022-11-29T07:19:35.279Z,100439.34
2022-11-29T07:20:25.706Z,100431.94
2022-11-29T07:21:03.219Z,100436.28
2022-11-29T07:21:53.341Z,100440.72
2022-11-29T07:22:39.951Z,100436.78
2022-11-29T07:23:29.816Z,100433.66
2022-11-29T07:24:32.358Z,100434.91
2022-11-29T07:25:38.134Z,100438.56
2022-11-29T07:26:29.120Z,100437.44
2022-11-29T07:27:13.372Z,100433.50
2022-11-29T07:27:58.606Z,100429.06
2022-11-29T07:28:43.122Z,100430.66
2022-11-29T07:29:37.093Z,100435.69
2022-11-29T07:30:19.058Z,100436.63
2022-11-29T07:30:59.249Z,100433.97
2022-11-29T07:31:55.222Z,100431.62
2022-11-29T07:33:00.343Z,100436.53
2022-11-29T07:33:48.094Z,100438.34
2022-11-29T07:34:35.412Z,100438.00
2022-11-29T07:35:15.534Z,100437.16
2022-11-29T07:36:05.998Z,100435.12
2022-11-29T07:37:22.369Z,100428.84
2022-11-29T07:38:10.149Z,100436.69
2022-11-29T07:38:55.663Z,100441.53
2022-11-29T07:39:36.214Z,100431.62
2022-11-29T07:40:35.937Z,100442.59
2022-11-29T07:41:24.295Z,100433.53
2022-11-29T07:42:08.038Z,100438.03
2022-11-29T07:43:23.397Z,100439.16
2022-11-29T07:44:36.384Z,100443.06
2022-11-29T07:45:11.236Z,100449.34
2022-11-29T07:45:43.262Z,100440.53
2022-11-29T07:46:15.216Z,100437.25
2022-11-29T07:46:47.237Z,100441.31
2022-11-29T07:47:19.226Z,100440.59
2022-11-29T07:47:51.612Z,100443.72
2022-11-29T07:48:23.532Z,100435.31
2022-11-29T07:48:55.703Z,100441.28
2022-11-29T07:49:27.531Z,100442.34
2022-11-29T07:49:59.390Z,100445.31
2022-11-29T07:50:31.792Z,100443.13
2022-11-29T07:51:03.846Z,100449.19
2022-11-29T07:51:35.792Z,100442.53
2022-11-29T07:52:14.740Z,100445.38
2022-11-29T07:52:47.678Z,100444.88
2022-11-29T07:53:21.787Z,100448.44
2022-11-29T07:53:53.971Z,100442.19
2022-11-29T07:54:26.745Z,100440.19
2022-11-29T07:54:58.562Z,100443.00
2022-11-29T07:55:34.328Z,100446.47
2022-11-29T07:56:06.349Z,100443.06
2022-11-29T07:56:38.178Z,100438.56
2022-11-29T07:57:10.079Z,100444.53
2022-11-29T07:57:41.939Z,100443.47
2022-11-29T07:58:15.780Z,100441.84
2022-11-29T07:58:47.789Z,100450.91
2022-11-29T07:59:20.121Z,100445.38
2022-11-29T07:59:52.258Z,100443.84
2022-11-29T08:00:24.229Z,100444.56
2022-11-29T08:00:56.416Z,100448.09
2022-11-29T08:01:28.354Z,100443.19
2022-11-29T08:02:00.364Z,100444.81
2022-11-29T08:02:32.957Z,100444.41
2022-11-29T08:03:05.284Z,100448.88
2022-11-29T08:03:37.305Z,100440.47
2022-11-29T08:04:09.518Z,100443.44
2022-11-29T08:04:44.289Z,100443.16
2022-11-29T08:05:17.099Z,100455.62
2022-11-29T08:05:49.027Z,100451.28
2022-11-29T08:06:26.574Z,100446.66
2022-11-29T08:07:00.124Z,100446.28
2022-11-29T08:07:35.443Z,100450.47
2022-11-29T08:08:07.666Z,100446.00
2022-11-29T08:08:43.949Z,100449.94
2022-11-29T08:09:16.335Z,100453.69
2022-11-29T08:09:48.302Z,100454.50
2022-11-29T08:10:20.284Z,100445.81
2022-11-29T08:10:52.099Z,100451.88